createdAt,value
2022-07-28T00:00:12.158Z,5.30
2022-07-28T00:02:58.664Z,3.80
2022-07-28T00:05:25.315Z,4.90
2022-07-28T00:07:51.913Z,6.30
2022-07-28T00:10:18.872Z,4.40
2022-07-28T00:12:46.841Z,2.90
2022-07-28T00:15:13.323Z,3.60
2022-07-28T00:17:39.790Z,4.60
2022-07-28T00:20:07.755Z,6.70
2022-07-28T00:22:34.842Z,3.90
2022-07-28T00:25:01.781Z,4.50
2022-07-28T00:27:29.318Z,4.10
2022-07-28T00:29:55.765Z,3.60
2022-07-28T00:32:22.269Z,7.90
2022-07-28T00:34:50.575Z,6.10
2022-07-28T00:37:20.579Z,6.40
2022-07-28T00:39:47.034Z,6.00
2022-07-28T00:42:18.584Z,7.80
2022-07-28T00:44:45.399Z,4.30
2022-07-28T00:47:12.060Z,6.40
2022-07-28T00:49:39.271Z,5.30
2022-07-28T00:52:08.392Z,7.70
2022-07-28T00:54:38.476Z,4.10
2022-07-28T00:57:04.906Z,5.60
2022-07-28T00:59:31.571Z,6.50
2022-07-28T01:02:01.618Z,4.90
2022-07-28T01:04:29.401Z,4.20
2022-07-28T01:07:42.833Z,5.20
2022-07-28T01:10:19.418Z,6.80
2022-07-28T01:13:10.542Z,5.70
2022-07-28T01:16:01.242Z,4.80
2022-07-28T01:19:01.297Z,5.10
2022-07-28T01:21:34.367Z,8.30
2022-07-28T01:24:24.508Z,4.80
2022-07-28T01:27:05.375Z,7.10
2022-07-28T01:30:03.671Z,7.00
2022-07-28T01:32:39.837Z,5.30
2022-07-28T01:35:15.332Z,5.20
2022-07-28T01:37:46.617Z,5.30
2022-07-28T01:40:17.639Z,4.80
2022-07-28T01:42:51.023Z,5.50
2022-07-28T01:45:22.893Z,6.00
2022-07-28T01:47:51.890Z,7.80
2022-07-28T01:50:20.834Z,6.60
2022-07-28T01:52:49.581Z,5.30
2022-07-28T01:55:20.603Z,5.70
2022-07-28T01:57:51.387Z,6.90
2022-07-28T02:00:18.723Z,8.40
2022-07-28T02:02:49.371Z,7.40
2022-07-28T02:05:22.026Z,5.70
2022-07-28T02:07:50.811Z,8.10
2022-07-28T02:10:19.557Z,4.70
2022-07-28T02:12:48.343Z,8.00
2022-07-28T02:15:17.304Z,6.40
2022-07-28T02:17:46.538Z,5.40
2022-07-28T02:20:15.820Z,5.00
2022-07-28T02:22:44.457Z,6.20
2022-07-28T02:25:19.159Z,4.40
2022-07-28T02:28:03.163Z,4.30
2022-07-28T02:30:46.425Z,4.20
2022-07-28T02:33:29.621Z,7.40
2022-07-28T02:36:32.326Z,6.30
2022-07-28T02:39:04.797Z,4.70
2022-07-28T02:41:36.333Z,5.40
2022-07-28T02:44:11.412Z,5.10
2022-07-28T02:46:43.615Z,4.00
2022-07-28T02:49:24.399Z,4.50
2022-07-28T02:51:53.976Z,4.90
2022-07-28T02:54:23.106Z,7.10
2022-07-28T02:56:54.343Z,6.00
2022-07-28T02:59:22.785Z,3.80
2022-07-28T03:01:50.384Z,6.00
2022-07-28T03:04:40.728Z,4.50
2022-07-28T03:07:11.218Z,4.90
2022-07-28T03:09:45.233Z,2.60
2022-07-28T03:12:12.236Z,3.20
2022-07-28T03:14:42.324Z,3.80
2022-07-28T03:17:09.073Z,3.80
2022-07-28T03:19:37.127Z,3.70
2022-07-28T03:22:10.407Z,4.40
2022-07-28T03:27:31.618Z,3.70
2022-07-28T03:30:11.178Z,4.40
2022-07-28T03:32:44.338Z,3.10
2022-07-28T03:35:12.531Z,4.70
2022-07-28T03:38:02.125Z,4.90
2022-07-28T03:40:31.476Z,10.40
2022-07-28T03:43:02.905Z,6.80
2022-07-28T03:45:34.444Z,7.00
2022-07-28T03:48:01.292Z,5.50
2022-07-28T03:50:29.728Z,5.20
2022-07-28T03:52:57.604Z,4.30
2022-07-28T03:55:25.772Z,9.30
2022-07-28T03:57:52.933Z,6.80
2022-07-28T04:00:20.894Z,10.60
2022-07-28T04:02:47.418Z,5.20
2022-07-28T04:05:15.895Z,8.90
2022-07-28T04:07:43.956Z,5.40
2022-07-28T04:10:13.667Z,5.30
2022-07-28T04:12:48.203Z,7.50
2022-07-28T04:15:21.251Z,2.90
2022-07-28T04:17:48.875Z,5.00
2022-07-28T04:20:17.446Z,8.10
2022-07-28T04:22:45.226Z,8.20
2022-07-28T04:25:12.687Z,5.60
2022-07-28T04:27:41.155Z,10.40
2022-07-28T04:30:13.178Z,8.00
2022-07-28T04:32:40.230Z,8.00
2022-07-28T04:35:08.062Z,14.70
2022-07-28T04:37:34.698Z,11.80
2022-07-28T04:40:01.616Z,14.40
2022-07-28T04:42:28.062Z,6.30
2022-07-28T04:44:54.607Z,11.00
2022-07-28T04:47:23.950Z,9.40
2022-07-28T04:49:51.358Z,9.60
2022-07-28T04:52:18.668Z,9.80
2022-07-28T04:54:45.170Z,10.60
2022-07-28T04:57:15.425Z,11.10
2022-07-28T04:59:42.421Z,9.10
2022-07-28T05:02:12.763Z,17.60
2022-07-28T05:04:42.404Z,14.20
2022-07-28T05:07:12.514Z,18.70
2022-07-28T05:09:39.969Z,17.00
2022-07-28T05:12:09.300Z,18.70
2022-07-28T05:14:39.008Z,16.90
2022-07-28T05:17:06.335Z,25.40
2022-07-28T05:19:36.141Z,16.20
2022-07-28T05:22:02.869Z,21.20
2022-07-28T05:24:29.337Z,16.00
2022-07-28T05:26:55.797Z,16.90
2022-07-28T05:29:24.773Z,20.10
2022-07-28T05:32:06.440Z,29.70
2022-07-28T05:34:45.014Z,27.60
2022-07-28T05:37:11.495Z,25.30
2022-07-28T05:39:38.034Z,27.60
2022-07-28T05:42:04.728Z,30.50
2022-07-28T05:44:37.271Z,18.80
2022-07-28T05:47:05.635Z,30.30
2022-07-28T05:49:32.191Z,25.50
2022-07-28T05:51:59.866Z,22.80
2022-07-28T05:54:26.497Z,22.20
2022-07-28T05:56:54.819Z,15.80
2022-07-28T05:59:21.194Z,21.00
2022-07-28T06:01:47.698Z,17.10
2022-07-28T06:04:30.405Z,19.00
2022-07-28T06:06:57.591Z,15.40
2022-07-28T06:09:24.020Z,15.70
2022-07-28T06:11:50.799Z,13.40
2022-07-28T06:14:18.351Z,11.80
2022-07-28T06:16:50.261Z,7.40
2022-07-28T06:19:17.520Z,4.90
2022-07-28T06:21:43.954Z,10.80
2022-07-28T06:24:10.605Z,16.30
2022-07-28T06:26:40.896Z,13.30
2022-07-28T06:29:10.728Z,20.00
2022-07-28T06:31:37.241Z,8.80
2022-07-28T06:34:03.753Z,12.40
2022-07-28T06:36:30.217Z,8.40
2022-07-28T06:38:56.802Z,3.00
2022-07-28T06:41:24.752Z,3.90
2022-07-28T06:43:51.916Z,2.20
2022-07-28T06:46:20.390Z,4.10
2022-07-28T06:48:47.017Z,4.90
2022-07-28T06:51:18.379Z,3.50
2022-07-28T06:53:47.699Z,3.40
2022-07-28T06:56:16.155Z,4.20
2022-07-28T06:58:46.879Z,5.80
2022-07-28T07:01:15.402Z,3.70
2022-07-28T07:03:43.338Z,3.50
2022-07-28T07:06:10.223Z,5.40
2022-07-28T07:08:36.689Z,2.80
2022-07-28T07:11:03.182Z,4.50
2022-07-28T07:13:30.623Z,4.10
2022-07-28T07:15:57.169Z,3.40
2022-07-28T07:18:23.883Z,3.70
2022-07-28T07:20:50.672Z,4.60
2022-07-28T07:23:17.228Z,3.80
2022-07-28T07:25:43.663Z,5.20
2022-07-28T07:28:10.128Z,3.70
2022-07-28T07:30:36.889Z,2.60
2022-07-28T07:33:03.935Z,1.90
2022-07-28T07:35:34.572Z,4.60
2022-07-28T07:38:01.213Z,4.60
2022-07-28T07:40:27.655Z,4.80
2022-07-28T07:42:54.423Z,6.30
2022-07-28T07:45:20.995Z,2.90
2022-07-28T07:47:47.401Z,3.60
2022-07-28T07:50:14.237Z,3.40
2022-07-28T07:52:41.177Z,5.30
2022-07-28T07:55:09.445Z,3.80
2022-07-28T07:57:35.976Z,3.20
2022-07-28T08:00:12.368Z,4.40
2022-07-28T08:03:00.467Z,9.00
2022-07-28T08:05:35.540Z,2.40
2022-07-28T08:08:06.838Z,3.50
2022-07-28T08:10:34.675Z,6.50
2022-07-28T08:13:01.343Z,3.10
2022-07-28T08:15:28.338Z,3.50
2022-07-28T08:17:54.809Z,3.60
2022-07-28T08:20:21.881Z,2.80
2022-07-28T08:22:52.791Z,3.00
2022-07-28T08:25:20.316Z,3.00
2022-07-28T08:27:47.392Z,3.60
2022-07-28T08:30:15.068Z,5.90
2022-07-28T08:32:45.099Z,4.10
2022-07-28T08:35:34.536Z,2.10
2022-07-28T08:38:05.748Z,3.90
2022-07-28T08:40:34.929Z,2.10
2022-07-28T08:43:23.270Z,4.30
2022-07-28T08:45:57.826Z,3.00
2022-07-28T08:48:29.614Z,4.10
2022-07-28T08:51:00.942Z,2.70
2022-07-28T08:53:30.045Z,2.80
2022-07-28T08:56:09.015Z,3.10
2022-07-28T08:58:37.451Z,4.30
2022-07-28T09:01:10.502Z,2.20
2022-07-28T09:03:41.413Z,2.50
2022-07-28T09:06:08.082Z,2.10
2022-07-28T09:08:34.635Z,3.60
2022-07-28T09:11:02.206Z,2.90
2022-07-28T09:13:28.757Z,4.20
2022-07-28T09:15:55.616Z,2.50
2022-07-28T09:18:22.778Z,2.90
2022-07-28T09:20:49.341Z,4.00
2022-07-28T09:23:43.433Z,2.40
2022-07-28T09:26:10.969Z,1.80
2022-07-28T09:29:10.092Z,2.50
2022-07-28T09:31:55.557Z,2.80
2022-07-28T09:34:24.269Z,4.50
2022-07-28T09:36:51.754Z,2.60
2022-07-28T09:39:32.261Z,4.30
2022-07-28T09:41:59.105Z,2.50
2022-07-28T09:44:27.208Z,2.60
2022-07-28T09:46:55.427Z,3.00
2022-07-28T09:49:44.673Z,2.10
2022-07-28T09:52:11.467Z,4.30
2022-07-28T09:54:41.008Z,2.60
2022-07-28T09:57:11.617Z,5.80
2022-07-28T09:59:46.124Z,4.70
2022-07-28T10:02:24.397Z,4.60
2022-07-28T10:04:53.905Z,4.70
2022-07-28T10:07:20.878Z,3.60
2022-07-28T10:10:08.594Z,4.60
2022-07-28T10:12:36.962Z,1.70
2022-07-28T10:15:37.305Z,3.60
2022-07-28T10:18:05.607Z,2.10
2022-07-28T10:20:33.661Z,2.90
2022-07-28T10:23:15.005Z,3.20
2022-07-28T10:25:43.778Z,3.60
2022-07-28T10:28:16.027Z,1.70
2022-07-28T10:30:44.522Z,2.70
2022-07-28T10:33:16.761Z,1.60
2022-07-28T10:35:55.280Z,1.80
2022-07-28T10:38:26.889Z,4.00
2022-07-28T10:40:54.906Z,1.10
2022-07-28T10:43:25.844Z,1.50
2022-07-28T10:46:05.719Z,4.30
2022-07-28T10:48:38.178Z,3.20
2022-07-28T10:51:05.935Z,3.50
2022-07-28T10:53:54.790Z,4.20
2022-07-28T10:56:40.887Z,4.40
2022-07-28T10:59:44.268Z,5.60
2022-07-28T11:02:52.441Z,4.10
2022-07-28T11:05:33.955Z,2.20
2022-07-28T11:08:04.628Z,3.20
2022-07-28T11:10:46.767Z,4.10
2022-07-28T11:13:32.792Z,3.80
2022-07-28T11:16:19.481Z,3.50
2022-07-28T11:19:09.333Z,3.30
2022-07-28T11:22:18.664Z,1.50
2022-07-28T11:25:19.683Z,1.90
2022-07-28T11:27:53.757Z,11.00
2022-07-28T11:30:32.429Z,7.00
2022-07-28T11:33:01.020Z,2.60
2022-07-28T11:35:30.670Z,5.40
2022-07-28T11:38:04.154Z,3.40
2022-07-28T11:40:33.322Z,3.10
2022-07-28T11:43:35.603Z,3.80
2022-07-28T11:46:09.378Z,2.50
2022-07-28T11:48:40.127Z,4.80
2022-07-28T11:51:10.989Z,3.20
2022-07-28T11:53:44.938Z,3.40
2022-07-28T11:56:12.691Z,3.10
2022-07-28T11:58:40.693Z,3.90
2022-07-28T12:01:18.194Z,2.00
2022-07-28T12:03:55.667Z,2.00
2022-07-28T12:06:34.333Z,2.90
2022-07-28T12:09:10.732Z,6.70
2022-07-28T12:11:42.034Z,4.10
2022-07-28T12:14:14.577Z,3.90
2022-07-28T12:16:48.963Z,3.70
2022-07-28T12:19:17.062Z,2.60
2022-07-28T12:21:49.220Z,2.70
2022-07-28T12:24:21.114Z,2.30
2022-07-28T12:26:50.077Z,2.60
2022-07-28T12:29:17.552Z,4.80
2022-07-28T12:32:02.176Z,2.10
2022-07-28T12:34:34.361Z,1.60
2022-07-28T12:37:03.812Z,3.00
2022-07-28T12:39:33.677Z,2.90
2022-07-28T12:42:09.188Z,2.60
2022-07-28T12:44:41.864Z,4.80
2022-07-28T12:47:12.328Z,2.60
2022-07-28T12:49:43.652Z,2.40
2022-07-28T12:53:22.439Z,3.90
2022-07-28T12:55:58.424Z,4.00
2022-07-28T12:58:27.003Z,3.30
2022-07-28T13:00:54.667Z,1.40
2022-07-28T13:03:30.191Z,3.20
2022-07-28T13:06:02.784Z,6.40
2022-07-28T13:08:46.418Z,2.00
2022-07-28T13:11:42.450Z,4.50
2022-07-28T13:14:02.344Z,1.70
2022-07-28T13:16:29.481Z,3.20
2022-07-28T13:19:01.701Z,3.40
2022-07-28T13:21:59.548Z,5.80
2022-07-28T13:24:29.853Z,2.20
2022-07-28T13:26:58.523Z,3.30
2022-07-28T13:29:25.350Z,2.00
2022-07-28T13:31:53.945Z,1.80
2022-07-28T13:34:20.500Z,4.00
2022-07-28T13:36:49.985Z,5.50
2022-07-28T13:39:16.890Z,3.30
2022-07-28T13:41:57.339Z,4.20
2022-07-28T13:44:27.004Z,3.60
2022-07-28T13:46:53.696Z,4.20
2022-07-28T13:49:23.052Z,3.60
2022-07-28T13:51:51.158Z,2.50
2022-07-28T13:54:20.524Z,3.70
2022-07-28T13:57:06.790Z,3.50
2022-07-28T13:59:35.459Z,3.90
2022-07-28T14:02:05.599Z,3.10
2022-07-28T14:04:41.951Z,2.30
2022-07-28T14:07:13.195Z,2.10
2022-07-28T14:09:40.511Z,1.80
2022-07-28T14:12:09.285Z,4.10
2022-07-28T14:14:38.320Z,2.40
2022-07-28T14:17:42.720Z,5.80
2022-07-28T14:20:10.478Z,1.60
2022-07-28T14:22:37.058Z,3.70
2022-07-28T14:25:03.858Z,2.90
2022-07-28T14:27:30.390Z,3.50
2022-07-28T14:29:56.984Z,4.80
2022-07-28T14:32:23.702Z,5.60
2022-07-28T14:34:50.245Z,3.40
2022-07-28T14:37:17.445Z,1.60
2022-07-28T14:39:43.937Z,3.30
2022-07-28T14:42:10.551Z,2.00
2022-07-28T14:44:37.088Z,4.40
2022-07-28T14:47:03.962Z,2.90
2022-07-28T14:49:31.281Z,3.40
2022-07-28T14:51:58.695Z,3.10
2022-07-28T14:54:27.190Z,3.80
2022-07-28T14:56:53.814Z,3.10
2022-07-28T14:59:20.542Z,3.20
2022-07-28T15:01:47.204Z,2.10
2022-07-28T15:04:16.811Z,2.60
2022-07-28T15:06:44.056Z,2.30
2022-07-28T15:09:10.691Z,3.10
2022-07-28T15:11:37.865Z,4.70
2022-07-28T15:14:05.351Z,4.60
2022-07-28T15:16:32.532Z,5.40
2022-07-28T15:18:59.105Z,1.80
2022-07-28T15:21:25.752Z,2.20
2022-07-28T15:23:53.535Z,4.50
2022-07-28T15:26:20.087Z,4.30
2022-07-28T15:28:49.855Z,6.80
2022-07-28T15:31:17.712Z,4.00
2022-07-28T15:33:48.473Z,4.80
2022-07-28T15:36:22.465Z,3.20
2022-07-28T15:38:49.109Z,3.40
2022-07-28T15:41:18.548Z,2.70
2022-07-28T15:43:45.294Z,4.00
2022-07-28T15:46:13.377Z,2.70
2022-07-28T15:48:43.729Z,6.10
2022-07-28T15:51:11.278Z,3.60
2022-07-28T15:53:39.061Z,3.40
2022-07-28T15:56:06.186Z,1.90
2022-07-28T15:58:38.060Z,3.60
2022-07-28T16:01:04.573Z,3.90
2022-07-28T16:03:31.135Z,2.90
2022-07-28T16:05:58.125Z,4.90
2022-07-28T16:08:24.546Z,2.50
2022-07-28T16:10:54.573Z,2.80
2022-07-28T16:13:35.835Z,2.80
2022-07-28T16:16:06.372Z,2.90
2022-07-28T16:18:33.353Z,2.80
2022-07-28T16:21:01.141Z,2.30
2022-07-28T16:23:27.737Z,2.50
2022-07-28T16:25:54.223Z,1.80
2022-07-28T16:28:21.339Z,3.30
2022-07-28T16:30:48.062Z,3.20
2022-07-28T16:33:14.647Z,3.20
2022-07-28T16:35:41.245Z,2.60
2022-07-28T16:38:07.840Z,2.50
2022-07-28T16:40:34.874Z,5.50
2022-07-28T16:43:03.722Z,3.60
2022-07-28T16:45:31.031Z,3.70
2022-07-28T16:47:58.444Z,6.40
2022-07-28T16:50:29.456Z,5.30
2022-07-28T16:52:56.175Z,9.30
2022-07-28T16:55:26.073Z,2.30
2022-07-28T16:57:52.716Z,3.00
2022-07-28T17:00:21.931Z,6.00
2022-07-28T17:02:48.421Z,5.20
2022-07-28T17:05:15.295Z,4.30
2022-07-28T17:07:45.266Z,4.70
2022-07-28T17:10:20.307Z,2.80
2022-07-28T17:12:49.902Z,3.70
2022-07-28T17:15:22.397Z,3.30
2022-07-28T17:17:50.953Z,2.00
2022-07-28T17:20:19.530Z,5.70
2022-07-28T17:22:46.381Z,5.40
2022-07-28T17:28:03.283Z,2.70
2022-07-28T17:30:32.340Z,5.70
2022-07-28T17:33:03.516Z,5.60
2022-07-28T17:35:35.491Z,5.20
2022-07-28T17:38:10.019Z,4.70
2022-07-28T17:40:42.469Z,4.40
2022-07-28T17:43:14.688Z,5.70
2022-07-28T17:45:41.135Z,8.20
2022-07-28T17:48:07.716Z,2.00
2022-07-28T17:50:34.787Z,6.80
2022-07-28T17:53:01.450Z,7.50
2022-07-28T17:55:57.448Z,2.80
2022-07-28T17:58:33.381Z,4.40
2022-07-28T18:01:09.738Z,5.70
2022-07-28T18:03:57.997Z,5.20
2022-07-28T18:06:32.977Z,5.10
2022-07-28T18:09:07.460Z,3.20
2022-07-28T18:11:56.619Z,6.50
2022-07-28T18:14:26.299Z,4.60
2022-07-28T18:16:54.874Z,3.40
2022-07-28T18:19:22.829Z,10.40
2022-07-28T18:21:49.322Z,7.70
2022-07-28T18:24:16.519Z,9.10
2022-07-28T18:26:43.947Z,18.00
2022-07-28T18:29:10.421Z,23.50
2022-07-28T18:31:40.259Z,10.20
2022-07-28T18:34:12.287Z,10.00
2022-07-28T18:36:39.640Z,26.60
2022-07-28T18:39:06.618Z,15.00
2022-07-28T18:41:46.323Z,9.70
2022-07-28T18:44:18.660Z,14.90
2022-07-28T18:46:45.929Z,11.00
2022-07-28T18:49:15.272Z,17.60
2022-07-28T18:51:44.047Z,20.60
2022-07-28T18:54:15.103Z,14.50
2022-07-28T18:56:45.375Z,7.80
2022-07-28T18:59:12.297Z,6.40
2022-07-28T19:01:39.454Z,12.40
2022-07-28T19:04:07.056Z,7.60
2022-07-28T19:06:39.819Z,9.60
2022-07-28T19:09:09.242Z,6.50
2022-07-28T19:11:40.135Z,8.00
2022-07-28T19:14:11.895Z,9.80
2022-07-28T19:16:39.015Z,8.80
2022-07-28T19:19:06.945Z,6.90
2022-07-28T19:21:34.328Z,21.30
2022-07-28T19:24:01.641Z,10.30
2022-07-28T19:26:28.673Z,12.20
2022-07-28T19:28:55.111Z,7.80
2022-07-28T19:31:21.826Z,13.80
2022-07-28T19:33:48.547Z,16.20
2022-07-28T19:36:15.796Z,11.30
2022-07-28T19:38:43.453Z,21.90
2022-07-28T19:41:12.372Z,34.50
2022-07-28T19:43:39.037Z,33.80
2022-07-28T19:46:05.870Z,33.30
2022-07-28T19:48:33.608Z,25.40
2022-07-28T19:51:00.845Z,15.80
2022-07-28T19:53:32.002Z,14.20
2022-07-28T19:56:01.235Z,15.40
2022-07-28T19:58:28.847Z,16.70
2022-07-28T20:00:58.322Z,13.80
2022-07-28T20:04:01.543Z,15.50
2022-07-28T20:06:14.945Z,13.10
2022-07-28T20:08:42.147Z,12.20
2022-07-28T20:11:10.980Z,13.70
2022-07-28T20:13:39.086Z,9.80
2022-07-28T20:16:05.830Z,18.30
2022-07-28T20:18:33.184Z,16.80
2022-07-28T20:20:59.779Z,14.40
2022-07-28T20:23:26.715Z,9.10
2022-07-28T20:25:53.247Z,13.50
2022-07-28T20:28:20.897Z,16.00
2022-07-28T20:30:49.100Z,17.60
2022-07-28T20:33:15.757Z,16.30
2022-07-28T20:35:43.404Z,12.80
2022-07-28T20:38:10.156Z,15.50
2022-07-28T20:40:39.814Z,19.40
2022-07-28T20:43:06.645Z,15.60
2022-07-28T20:45:33.928Z,16.60
2022-07-28T20:48:00.558Z,7.80
2022-07-28T20:50:27.226Z,10.60
2022-07-28T20:52:53.766Z,9.20
2022-07-28T20:55:20.298Z,8.80
2022-07-28T20:57:53.383Z,14.50
2022-07-28T21:02:47.740Z,10.50
2022-07-28T21:05:23.907Z,10.20
2022-07-28T21:08:05.837Z,12.00
2022-07-28T21:10:35.738Z,11.60
2022-07-28T21:13:02.974Z,13.40
2022-07-28T21:15:29.940Z,10.90
2022-07-28T21:17:56.525Z,11.50
2022-07-28T21:20:24.083Z,11.80
2022-07-28T21:22:50.601Z,16.30
2022-07-28T21:25:17.232Z,12.30
2022-07-28T21:28:03.611Z,9.90
2022-07-28T21:30:30.060Z,10.10
2022-07-28T21:32:56.820Z,14.40
2022-07-28T21:35:24.325Z,13.80
2022-07-28T21:37:51.074Z,15.90
2022-07-28T21:40:17.754Z,15.20
2022-07-28T21:42:46.624Z,9.50
2022-07-28T21:45:13.173Z,13.20
2022-07-28T21:47:40.383Z,13.10
2022-07-28T21:50:07.412Z,10.50
2022-07-28T21:52:35.589Z,13.10
2022-07-28T21:55:02.437Z,10.80
2022-07-28T21:57:28.897Z,15.10
2022-07-28T21:59:55.906Z,23.70
2022-07-28T22:02:24.205Z,27.20
2022-07-28T22:04:53.321Z,27.80
2022-07-28T22:07:19.843Z,22.40
2022-07-28T22:09:46.344Z,19.60
2022-07-28T22:12:13.354Z,17.70
2022-07-28T22:40:54.097Z,17.10
2022-07-28T22:43:20.530Z,20.10
2022-07-28T22:45:49.781Z,14.30
2022-07-28T22:48:18.785Z,10.30
2022-07-28T22:50:45.307Z,9.80
2022-07-28T22:53:12.106Z,12.80
2022-07-28T22:55:39.746Z,12.60
2022-07-28T22:58:06.111Z,12.60
2022-07-28T23:00:33.695Z,8.60
2022-07-28T23:03:05.180Z,13.90
2022-07-28T23:05:31.958Z,12.60
2022-07-28T23:07:58.855Z,16.20
2022-07-28T23:10:28.979Z,9.50
2022-07-28T23:12:58.539Z,12.70
2022-07-28T23:15:40.411Z,12.20
2022-07-28T23:18:15.231Z,14.30
2022-07-28T23:20:43.208Z,12.90
2022-07-28T23:23:12.934Z,11.10
2022-07-28T23:25:42.101Z,10.30
2022-07-28T23:28:09.140Z,11.90
2022-07-28T23:30:35.710Z,8.50
2022-07-28T23:33:04.613Z,10.80
2022-07-28T23:35:31.156Z,16.20
2022-07-28T23:37:57.612Z,11.90
2022-07-28T23:40:24.519Z,14.70
2022-07-28T23:42:52.014Z,12.50
2022-07-28T23:45:18.542Z,12.00
2022-07-28T23:47:45.390Z,9.00
2022-07-28T23:50:11.945Z,12.50
2022-07-28T23:52:38.364Z,12.10
2022-07-28T23:55:05.273Z,10.90
2022-07-28T23:57:31.900Z,11.80
